sensor_id;sensor_type;location;lat;lon;timestamp;P1;durP1;ratioP1;P2;durP2;ratioP2
36449;SDS011;22475;51.390;7.180;2023-08-31T00:01:55;1.63;;;0.80;;
36449;SDS011;22475;51.390;7.180;2023-08-31T00:04:23;2.22;;;0.80;;
36449;SDS011;22475;51.390;7.180;2023-08-31T00:06:50;6.68;;;0.98;;
36449;SDS011;22475;51.390;7.180;2023-08-31T00:09:16;1.15;;;0.90;;
36449;SDS011;22475;51.390;7.180;2023-08-31T00:11:44;5.85;;;1.27;;
36449;SDS011;22475;51.390;7.180;2023-08-31T00:14:10;1.40;;;0.80;;
36449;SDS011;22475;51.390;7.180;2023-08-31T00:16:37;1.70;;;0.82;;
36449;SDS011;22475;51.390;7.180;2023-08-31T00:19:04;2.42;;;1.00;;
36449;SDS011;22475;51.390;7.180;2023-08-31T00:21:32;2.17;;;0.82;;
36449;SDS011;22475;51.390;7.180;2023-08-31T00:23:59;1.20;;;0.80;;
36449;SDS011;22475;51.390;7.180;2023-08-31T00:26:25;3.83;;;1.00;;
36449;SDS011;22475;51.390;7.180;2023-08-31T00:28:54;2.35;;;0.85;;
36449;SDS011;22475;51.390;7.180;2023-08-31T00:31:21;5.97;;;1.05;;
36449;SDS011;22475;51.390;7.180;2023-08-31T00:33:47;1.52;;;0.70;;
36449;SDS011;22475;51.390;7.180;2023-08-31T00:36:14;1.95;;;1.10;;
36449;SDS011;22475;51.390;7.180;2023-08-31T00:38:44;1.08;;;0.60;;
36449;SDS011;22475;51.390;7.180;2023-08-31T00:41:11;1.83;;;0.73;;
36449;SDS011;22475;51.390;7.180;2023-08-31T00:43:38;1.33;;;1.13;;
36449;SDS011;22475;51.390;7.180;2023-08-31T00:46:05;3.40;;;0.90;;
36449;SDS011;22475;51.390;7.180;2023-08-31T00:48:32;3.22;;;1.08;;
36449;SDS011;22475;51.390;7.180;2023-08-31T00:50:59;3.92;;;0.88;;
36449;SDS011;22475;51.390;7.180;2023-08-31T00:53:26;2.22;;;0.73;;
36449;SDS011;22475;51.390;7.180;2023-08-31T00:55:55;1.30;;;0.82;;
36449;SDS011;22475;51.390;7.180;2023-08-31T00:58:22;9.05;;;1.30;;
36449;SDS011;22475;51.390;7.180;2023-08-31T01:00:50;5.32;;;2.05;;
36449;SDS011;22475;51.390;7.180;2023-08-31T01:03:26;1.52;;;0.90;;
36449;SDS011;22475;51.390;7.180;2023-08-31T01:06:00;4.78;;;1.05;;
36449;SDS011;22475;51.390;7.180;2023-08-31T01:08:36;0.82;;;0.82;;
36449;SDS011;22475;51.390;7.180;2023-08-31T01:11:16;0.85;;;0.80;;
36449;SDS011;22475;51.390;7.180;2023-08-31T01:13:48;7.60;;;1.40;;
36449;SDS011;22475;51.390;7.180;2023-08-31T01:16:17;3.00;;;1.02;;
36449;SDS011;22475;51.390;7.180;2023-08-31T01:18:46;2.75;;;1.00;;
36449;SDS011;22475;51.390;7.180;2023-08-31T01:21:17;6.13;;;1.83;;
36449;SDS011;22475;51.390;7.180;2023-08-31T01:23:52;1.45;;;1.05;;
36449;SDS011;22475;51.390;7.180;2023-08-31T01:26:19;3.40;;;0.98;;
36449;SDS011;22475;51.390;7.180;2023-08-31T01:28:47;4.25;;;1.30;;
36449;SDS011;22475;51.390;7.180;2023-08-31T01:31:14;1.08;;;0.90;;
36449;SDS011;22475;51.390;7.180;2023-08-31T01:33:41;5.85;;;1.13;;
36449;SDS011;22475;51.390;7.180;2023-08-31T01:36:10;3.08;;;1.10;;
36449;SDS011;22475;51.390;7.180;2023-08-31T01:39:02;5.90;;;1.27;;
36449;SDS011;22475;51.390;7.180;2023-08-31T01:41:33;1.17;;;1.00;;
36449;SDS011;22475;51.390;7.180;2023-08-31T01:44:01;1.17;;;1.08;;
36449;SDS011;22475;51.390;7.180;2023-08-31T01:46:29;5.10;;;1.35;;
36449;SDS011;22475;51.390;7.180;2023-08-31T01:48:56;6.47;;;1.33;;
36449;SDS011;22475;51.390;7.180;2023-08-31T01:51:23;7.22;;;1.50;;
36449;SDS011;22475;51.390;7.180;2023-08-31T01:53:49;2.05;;;1.42;;
36449;SDS011;22475;51.390;7.180;2023-08-31T01:56:18;3.25;;;1.38;;
36449;SDS011;22475;51.390;7.180;2023-08-31T01:58:46;1.88;;;1.60;;
36449;SDS011;22475;51.390;7.180;2023-08-31T02:01:13;4.28;;;1.20;;
36449;SDS011;22475;51.390;7.180;2023-08-31T02:03:40;2.72;;;1.10;;
36449;SDS011;22475;51.390;7.180;2023-08-31T02:06:06;5.65;;;1.92;;
36449;SDS011;22475;51.390;7.180;2023-08-31T02:08:33;4.30;;;1.10;;
36449;SDS011;22475;51.390;7.180;2023-08-31T02:11:00;5.32;;;0.90;;
36449;SDS011;22475;51.390;7.180;2023-08-31T02:13:29;7.25;;;1.52;;
36449;SDS011;22475;51.390;7.180;2023-08-31T02:15:56;4.63;;;1.00;;
36449;SDS011;22475;51.390;7.180;2023-08-31T02:18:23;1.67;;;1.20;;
36449;SDS011;22475;51.390;7.180;2023-08-31T02:20:51;5.15;;;1.50;;
36449;SDS011;22475;51.390;7.180;2023-08-31T02:23:18;2.03;;;1.17;;
36449;SDS011;22475;51.390;7.180;2023-08-31T02:25:45;2.25;;;1.30;;
36449;SDS011;22475;51.390;7.180;2023-08-31T02:28:11;5.57;;;1.33;;
36449;SDS011;22475;51.390;7.180;2023-08-31T02:30:39;1.88;;;1.50;;
36449;SDS011;22475;51.390;7.180;2023-08-31T02:33:06;3.90;;;1.67;;
36449;SDS011;22475;51.390;7.180;2023-08-31T02:35:34;5.55;;;1.73;;
36449;SDS011;22475;51.390;7.180;2023-08-31T02:38:01;5.78;;;1.25;;
36449;SDS011;22475;51.390;7.180;2023-08-31T02:40:28;1.50;;;1.40;;
36449;SDS011;22475;51.390;7.180;2023-08-31T02:42:55;2.60;;;1.67;;
36449;SDS011;22475;51.390;7.180;2023-08-31T02:45:22;2.35;;;1.23;;
36449;SDS011;22475;51.390;7.180;2023-08-31T02:47:50;3.00;;;2.10;;
36449;SDS011;22475;51.390;7.180;2023-08-31T02:50:17;7.15;;;1.60;;
36449;SDS011;22475;51.390;7.180;2023-08-31T02:52:43;2.45;;;1.50;;
36449;SDS011;22475;51.390;7.180;2023-08-31T02:55:10;3.35;;;1.30;;
36449;SDS011;22475;51.390;7.180;2023-08-31T02:57:37;7.15;;;1.35;;
36449;SDS011;22475;51.390;7.180;2023-08-31T03:00:04;6.95;;;1.73;;
36449;SDS011;22475;51.390;7.180;2023-08-31T03:02:37;1.98;;;1.50;;
36449;SDS011;22475;51.390;7.180;2023-08-31T03:05:06;4.60;;;1.40;;
36449;SDS011;22475;51.390;7.180;2023-08-31T03:07:33;2.78;;;1.45;;
36449;SDS011;22475;51.390;7.180;2023-08-31T03:10:00;4.40;;;1.20;;
36449;SDS011;22475;51.390;7.180;2023-08-31T03:12:27;3.22;;;2.00;;
36449;SDS011;22475;51.390;7.180;2023-08-31T03:14:53;4.30;;;1.25;;
36449;SDS011;22475;51.390;7.180;2023-08-31T03:17:20;2.92;;;2.20;;
36449;SDS011;22475;51.390;7.180;2023-08-31T03:19:47;4.50;;;1.70;;
36449;SDS011;22475;51.390;7.180;2023-08-31T03:22:15;4.80;;;1.77;;
36449;SDS011;22475;51.390;7.180;2023-08-31T03:24:42;1.92;;;1.35;;
36449;SDS011;22475;51.390;7.180;2023-08-31T03:27:08;8.55;;;1.88;;
36449;SDS011;22475;51.390;7.180;2023-08-31T03:29:35;3.72;;;1.17;;
36449;SDS011;22475;51.390;7.180;2023-08-31T03:32:02;2.42;;;1.50;;
36449;SDS011;22475;51.390;7.180;2023-08-31T03:34:29;1.98;;;1.52;;
36449;SDS011;22475;51.390;7.180;2023-08-31T03:36:56;9.85;;;1.77;;
36449;SDS011;22475;51.390;7.180;2023-08-31T03:39:24;2.67;;;1.77;;
36449;SDS011;22475;51.390;7.180;2023-08-31T03:41:51;1.30;;;1.20;;
36449;SDS011;22475;51.390;7.180;2023-08-31T03:44:20;2.72;;;1.52;;
36449;SDS011;22475;51.390;7.180;2023-08-31T03:46:46;1.83;;;1.55;;
36449;SDS011;22475;51.390;7.180;2023-08-31T03:49:13;2.28;;;1.75;;
36449;SDS011;22475;51.390;7.180;2023-08-31T03:51:40;1.70;;;1.45;;
36449;SDS011;22475;51.390;7.180;2023-08-31T03:54:07;3.97;;;1.35;;
36449;SDS011;22475;51.390;7.180;2023-08-31T03:56:36;2.72;;;1.75;;
36449;SDS011;22475;51.390;7.180;2023-08-31T03:59:03;1.17;;;1.08;;
36449;SDS011;22475;51.390;7.180;2023-08-31T04:01:30;2.45;;;1.60;;
36449;SDS011;22475;51.390;7.180;2023-08-31T04:03:57;5.40;;;1.45;;
36449;SDS011;22475;51.390;7.180;2023-08-31T04:06:23;4.13;;;1.77;;
36449;SDS011;22475;51.390;7.180;2023-08-31T04:08:50;1.95;;;1.85;;
36449;SDS011;22475;51.390;7.180;2023-08-31T04:11:17;3.58;;;2.10;;
36449;SDS011;22475;51.390;7.180;2023-08-31T04:13:45;5.63;;;2.28;;
36449;SDS011;22475;51.390;7.180;2023-08-31T04:16:11;2.60;;;2.03;;
36449;SDS011;22475;51.390;7.180;2023-08-31T04:18:38;2.25;;;1.88;;
36449;SDS011;22475;51.390;7.180;2023-08-31T04:21:05;3.28;;;2.20;;
36449;SDS011;22475;51.390;7.180;2023-08-31T04:23:32;2.35;;;2.00;;
36449;SDS011;22475;51.390;7.180;2023-08-31T04:25:59;4.78;;;2.53;;
36449;SDS011;22475;51.390;7.180;2023-08-31T04:28:25;6.05;;;2.35;;
36449;SDS011;22475;51.390;7.180;2023-08-31T04:30:54;2.33;;;1.95;;
36449;SDS011;22475;51.390;7.180;2023-08-31T04:33:20;2.70;;;2.25;;
36449;SDS011;22475;51.390;7.180;2023-08-31T04:35:47;3.33;;;1.98;;
36449;SDS011;22475;51.390;7.180;2023-08-31T04:38:14;3.95;;;2.03;;
36449;SDS011;22475;51.390;7.180;2023-08-31T04:40:42;4.47;;;3.03;;
36449;SDS011;22475;51.390;7.180;2023-08-31T04:43:09;2.47;;;2.28;;
36449;SDS011;22475;51.390;7.180;2023-08-31T04:45:36;3.83;;;3.33;;
36449;SDS011;22475;51.390;7.180;2023-08-31T04:48:05;3.80;;;2.80;;
36449;SDS011;22475;51.390;7.180;2023-08-31T04:50:31;3.45;;;3.13;;
36449;SDS011;22475;51.390;7.180;2023-08-31T04:52:58;3.13;;;2.83;;
36449;SDS011;22475;51.390;7.180;2023-08-31T04:55:25;6.97;;;3.33;;
36449;SDS011;22475;51.390;7.180;2023-08-31T04:57:52;5.20;;;3.45;;
36449;SDS011;22475;51.390;7.180;2023-08-31T05:00:19;7.28;;;3.22;;
36449;SDS011;22475;51.390;7.180;2023-08-31T05:02:45;4.57;;;2.83;;
36449;SDS011;22475;51.390;7.180;2023-08-31T05:05:14;2.95;;;2.65;;
36449;SDS011;22475;51.390;7.180;2023-08-31T05:07:40;4.82;;;3.38;;
36449;SDS011;22475;51.390;7.180;2023-08-31T05:10:08;3.75;;;2.88;;
36449;SDS011;22475;51.390;7.180;2023-08-31T05:12:36;6.68;;;4.10;;
36449;SDS011;22475;51.390;7.180;2023-08-31T05:15:03;6.20;;;3.33;;
36449;SDS011;22475;51.390;7.180;2023-08-31T05:17:31;4.15;;;3.85;;
36449;SDS011;22475;51.390;7.180;2023-08-31T05:19:57;6.53;;;3.72;;
36449;SDS011;22475;51.390;7.180;2023-08-31T05:22:25;4.85;;;3.13;;
36449;SDS011;22475;51.390;7.180;2023-08-31T05:24:52;4.97;;;4.57;;
36449;SDS011;22475;51.390;7.180;2023-08-31T05:27:19;8.55;;;4.75;;
36449;SDS011;22475;51.390;7.180;2023-08-31T05:29:46;5.88;;;4.07;;
36449;SDS011;22475;51.390;7.180;2023-08-31T05:32:12;6.72;;;3.88;;
36449;SDS011;22475;51.390;7.180;2023-08-31T05:34:39;4.32;;;3.30;;
36449;SDS011;22475;51.390;7.180;2023-08-31T05:37:06;4.18;;;3.75;;
36449;SDS011;22475;51.390;7.180;2023-08-31T05:39:34;4.80;;;3.97;;
36449;SDS011;22475;51.390;7.180;2023-08-31T05:42:01;3.80;;;3.40;;
36449;SDS011;22475;51.390;7.180;2023-08-31T05:44:28;7.07;;;3.72;;
36449;SDS011;22475;51.390;7.180;2023-08-31T05:46:54;5.18;;;3.45;;
36449;SDS011;22475;51.390;7.180;2023-08-31T05:49:21;3.90;;;3.53;;
36449;SDS011;22475;51.390;7.180;2023-08-31T05:51:48;3.83;;;3.13;;
36449;SDS011;22475;51.390;7.180;2023-08-31T05:54:15;4.32;;;3.65;;
36449;SDS011;22475;51.390;7.180;2023-08-31T05:56:43;5.55;;;3.40;;
36449;SDS011;22475;51.390;7.180;2023-08-31T05:59:11;3.28;;;2.97;;
36449;SDS011;22475;51.390;7.180;2023-08-31T06:01:38;4.05;;;3.75;;
36449;SDS011;22475;51.390;7.180;2023-08-31T06:04:05;3.55;;;3.25;;
36449;SDS011;22475;51.390;7.180;2023-08-31T06:06:32;7.78;;;3.58;;
36449;SDS011;22475;51.390;7.180;2023-08-31T06:08:58;5.15;;;3.30;;
36449;SDS011;22475;51.390;7.180;2023-08-31T06:11:25;4.18;;;2.97;;
36449;SDS011;22475;51.390;7.180;2023-08-31T06:13:53;8.18;;;3.00;;
36449;SDS011;22475;51.390;7.180;2023-08-31T06:16:20;3.20;;;2.90;;
36449;SDS011;22475;51.390;7.180;2023-08-31T06:18:47;5.30;;;3.15;;
36449;SDS011;22475;51.390;7.180;2023-08-31T06:21:14;6.30;;;2.60;;
36449;SDS011;22475;51.390;7.180;2023-08-31T06:23:41;4.70;;;2.65;;
36449;SDS011;22475;51.390;7.180;2023-08-31T06:26:08;3.33;;;2.13;;
36449;SDS011;22475;51.390;7.180;2023-08-31T06:28:34;3.00;;;2.70;;
36449;SDS011;22475;51.390;7.180;2023-08-31T06:31:03;2.78;;;2.55;;
36449;SDS011;22475;51.390;7.180;2023-08-31T06:33:29;3.22;;;2.53;;
36449;SDS011;22475;51.390;7.180;2023-08-31T06:35:56;2.70;;;2.45;;
36449;SDS011;22475;51.390;7.180;2023-08-31T06:38:23;2.80;;;1.75;;
36449;SDS011;22475;51.390;7.180;2023-08-31T06:40:50;4.13;;;2.30;;
36449;SDS011;22475;51.390;7.180;2023-08-31T06:43:19;3.17;;;2.13;;
36449;SDS011;22475;51.390;7.180;2023-08-31T06:45:46;5.35;;;2.10;;
36449;SDS011;22475;51.390;7.180;2023-08-31T06:48:14;3.67;;;2.78;;
36449;SDS011;22475;51.390;7.180;2023-08-31T06:50:41;5.35;;;2.13;;
36449;SDS011;22475;51.390;7.180;2023-08-31T06:53:08;2.70;;;1.88;;
36449;SDS011;22475;51.390;7.180;2023-08-31T06:55:35;1.83;;;1.73;;
36449;SDS011;22475;51.390;7.180;2023-08-31T06:58:01;3.22;;;1.60;;
36449;SDS011;22475;51.390;7.180;2023-08-31T07:00:29;2.03;;;1.80;;
36449;SDS011;22475;51.390;7.180;2023-08-31T07:02:57;2.05;;;1.95;;
36449;SDS011;22475;51.390;7.180;2023-08-31T07:05:26;3.15;;;2.00;;
36449;SDS011;22475;51.390;7.180;2023-08-31T07:07:54;1.63;;;1.52;;
36449;SDS011;22475;51.390;7.180;2023-08-31T07:10:21;3.50;;;1.85;;
36449;SDS011;22475;51.390;7.180;2023-08-31T07:12:48;4.28;;;1.00;;
36449;SDS011;22475;51.390;7.180;2023-08-31T07:15:15;3.28;;;1.63;;
36449;SDS011;22475;51.390;7.180;2023-08-31T07:17:42;1.52;;;1.42;;
36449;SDS011;22475;51.390;7.180;2023-08-31T07:20:09;4.30;;;1.30;;
36449;SDS011;22475;51.390;7.180;2023-08-31T07:22:38;4.38;;;1.45;;
36449;SDS011;22475;51.390;7.180;2023-08-31T07:25:06;1.73;;;1.45;;
36449;SDS011;22475;51.390;7.180;2023-08-31T07:27:33;1.98;;;1.33;;
36449;SDS011;22475;51.390;7.180;2023-08-31T07:30:00;1.35;;;1.25;;
36449;SDS011;22475;51.390;7.180;2023-08-31T07:32:28;7.40;;;1.60;;
36449;SDS011;22475;51.390;7.180;2023-08-31T07:34:54;2.10;;;1.65;;
36449;SDS011;22475;51.390;7.180;2023-08-31T07:37:21;4.47;;;1.63;;
36449;SDS011;22475;51.390;7.180;2023-08-31T07:39:49;2.20;;;1.73;;
36449;SDS011;22475;51.390;7.180;2023-08-31T07:42:17;3.95;;;1.67;;
36449;SDS011;22475;51.390;7.180;2023-08-31T07:44:43;1.50;;;1.30;;
36449;SDS011;22475;51.390;7.180;2023-08-31T07:47:10;2.75;;;1.90;;
36449;SDS011;22475;51.390;7.180;2023-08-31T07:49:37;3.15;;;1.15;;
36449;SDS011;22475;51.390;7.180;2023-08-31T07:52:04;4.28;;;1.40;;
36449;SDS011;22475;51.390;7.180;2023-08-31T07:54:31;2.28;;;1.55;;
36449;SDS011;22475;51.390;7.180;2023-08-31T07:56:59;1.70;;;1.20;;
36449;SDS011;22475;51.390;7.180;2023-08-31T07:59:26;6.85;;;1.83;;
36449;SDS011;22475;51.390;7.180;2023-08-31T08:01:53;2.63;;;2.13;;
36449;SDS011;22475;51.390;7.180;2023-08-31T08:04:19;2.92;;;1.00;;
36449;SDS011;22475;51.390;7.180;2023-08-31T08:06:48;1.95;;;1.75;;
36449;SDS011;22475;51.390;7.180;2023-08-31T08:09:15;3.05;;;1.98;;
36449;SDS011;22475;51.390;7.180;2023-08-31T08:11:42;2.45;;;1.42;;
36449;SDS011;22475;51.390;7.180;2023-08-31T08:14:11;5.15;;;1.45;;
36449;SDS011;22475;51.390;7.180;2023-08-31T08:16:37;1.63;;;0.80;;
36449;SDS011;22475;51.390;7.180;2023-08-31T08:19:05;4.18;;;1.17;;
36449;SDS011;22475;51.390;7.180;2023-08-31T08:21:32;1.23;;;1.08;;
36449;SDS011;22475;51.390;7.180;2023-08-31T08:23:59;1.85;;;1.10;;
36449;SDS011;22475;51.390;7.180;2023-08-31T08:26:26;5.40;;;1.13;;
36449;SDS011;22475;51.390;7.180;2023-08-31T08:28:53;3.67;;;0.90;;
36449;SDS011;22475;51.390;7.180;2023-08-31T08:31:21;1.80;;;0.90;;
36449;SDS011;22475;51.390;7.180;2023-08-31T08:33:48;3.63;;;1.40;;
36449;SDS011;22475;51.390;7.180;2023-08-31T08:36:14;3.38;;;1.15;;
36449;SDS011;22475;51.390;7.180;2023-08-31T08:38:41;6.05;;;1.15;;
36449;SDS011;22475;51.390;7.180;2023-08-31T08:41:08;7.53;;;1.88;;
36449;SDS011;22475;51.390;7.180;2023-08-31T08:43:36;3.05;;;1.58;;
36449;SDS011;22475;51.390;7.180;2023-08-31T08:46:06;3.40;;;1.15;;
36449;SDS011;22475;51.390;7.180;2023-08-31T08:48:36;1.63;;;1.48;;
36449;SDS011;22475;51.390;7.180;2023-08-31T08:51:03;2.80;;;1.00;;
36449;SDS011;22475;51.390;7.180;2023-08-31T08:53:30;2.53;;;1.20;;
36449;SDS011;22475;51.390;7.180;2023-08-31T08:55:57;5.85;;;1.00;;
36449;SDS011;22475;51.390;7.180;2023-08-31T08:58:24;1.17;;;0.55;;
36449;SDS011;22475;51.390;7.180;2023-08-31T09:00:51;1.63;;;1.17;;
36449;SDS011;22475;51.390;7.180;2023-08-31T09:03:20;1.30;;;0.93;;
36449;SDS011;22475;51.390;7.180;2023-08-31T09:05:48;1.73;;;1.63;;
36449;SDS011;22475;51.390;7.180;2023-08-31T09:08:15;5.47;;;1.23;;
36449;SDS011;22475;51.390;7.180;2023-08-31T09:10:42;3.65;;;1.35;;
36449;SDS011;22475;51.390;7.180;2023-08-31T09:13:10;1.92;;;1.00;;
36449;SDS011;22475;51.390;7.180;2023-08-31T09:15:39;2.40;;;1.30;;
36449;SDS011;22475;51.390;7.180;2023-08-31T09:18:07;1.75;;;1.48;;
36449;SDS011;22475;51.390;7.180;2023-08-31T09:20:42;7.13;;;1.52;;
36449;SDS011;22475;51.390;7.180;2023-08-31T09:23:11;3.05;;;1.00;;
36449;SDS011;22475;51.390;7.180;2023-08-31T09:25:42;5.22;;;1.48;;
36449;SDS011;22475;51.390;7.180;2023-08-31T09:28:09;1.50;;;1.13;;
36449;SDS011;22475;51.390;7.180;2023-08-31T09:30:37;2.30;;;1.02;;
36449;SDS011;22475;51.390;7.180;2023-08-31T09:33:06;3.13;;;1.40;;
36449;SDS011;22475;51.390;7.180;2023-08-31T09:35:34;3.95;;;1.15;;
36449;SDS011;22475;51.390;7.180;2023-08-31T09:38:05;1.98;;;1.73;;
36449;SDS011;22475;51.390;7.180;2023-08-31T09:40:35;1.23;;;1.13;;
36449;SDS011;22475;51.390;7.180;2023-08-31T09:43:02;2.97;;;1.10;;
36449;SDS011;22475;51.390;7.180;2023-08-31T09:45:29;2.97;;;0.90;;
36449;SDS011;22475;51.390;7.180;2023-08-31T09:47:57;1.83;;;1.50;;
36449;SDS011;22475;51.390;7.180;2023-08-31T09:50:25;4.32;;;1.02;;
36449;SDS011;22475;51.390;7.180;2023-08-31T09:52:55;1.77;;;1.00;;
36449;SDS011;22475;51.390;7.180;2023-08-31T09:55:26;0.93;;;0.80;;
36449;SDS011;22475;51.390;7.180;2023-08-31T09:57:56;7.78;;;1.42;;
36449;SDS011;22475;51.390;7.180;2023-08-31T10:00:23;3.35;;;0.98;;
36449;SDS011;22475;51.390;7.180;2023-08-31T10:02:51;2.22;;;0.70;;
36449;SDS011;22475;51.390;7.180;2023-08-31T10:05:19;2.40;;;0.82;;
36449;SDS011;22475;51.390;7.180;2023-08-31T10:07:47;3.38;;;1.00;;
36449;SDS011;22475;51.390;7.180;2023-08-31T10:10:14;3.45;;;1.30;;
36449;SDS011;22475;51.390;7.180;2023-08-31T10:12:41;0.65;;;0.57;;
36449;SDS011;22475;51.390;7.180;2023-08-31T10:15:11;3.30;;;1.08;;
36449;SDS011;22475;51.390;7.180;2023-08-31T10:17:39;3.13;;;1.10;;
36449;SDS011;22475;51.390;7.180;2023-08-31T10:20:06;1.13;;;0.50;;
36449;SDS011;22475;51.390;7.180;2023-08-31T10:22:36;1.77;;;0.93;;
36449;SDS011;22475;51.390;7.180;2023-08-31T10:25:04;2.47;;;1.17;;
36449;SDS011;22475;51.390;7.180;2023-08-31T10:27:35;1.38;;;0.88;;
36449;SDS011;22475;51.390;7.180;2023-08-31T10:35:49;1.52;;;0.77;;
36449;SDS011;22475;51.390;7.180;2023-08-31T10:38:22;0.90;;;0.70;;
36449;SDS011;22475;51.390;7.180;2023-08-31T10:41:00;4.28;;;0.90;;
36449;SDS011;22475;51.390;7.180;2023-08-31T10:43:28;1.20;;;0.90;;
36449;SDS011;22475;51.390;7.180;2023-08-31T10:46:16;2.75;;;0.57;;
36449;SDS011;22475;51.390;7.180;2023-08-31T10:48:49;1.10;;;0.68;;
36449;SDS011;22475;51.390;7.180;2023-08-31T10:51:16;4.05;;;1.20;;
36449;SDS011;22475;51.390;7.180;2023-08-31T10:53:45;1.13;;;0.70;;
36449;SDS011;22475;51.390;7.180;2023-08-31T10:56:12;2.05;;;1.02;;
36449;SDS011;22475;51.390;7.180;2023-08-31T10:58:41;4.13;;;0.77;;
36449;SDS011;22475;51.390;7.180;2023-08-31T11:01:09;1.23;;;0.43;;
36449;SDS011;22475;51.390;7.180;2023-08-31T11:06:25;1.58;;;0.60;;
36449;SDS011;22475;51.390;7.180;2023-08-31T11:08:55;2.83;;;0.80;;
36449;SDS011;22475;51.390;7.180;2023-08-31T11:11:22;14.98;;;1.65;;
36449;SDS011;22475;51.390;7.180;2023-08-31T11:13:49;0.77;;;0.52;;
36449;SDS011;22475;51.390;7.180;2023-08-31T11:16:22;2.47;;;0.98;;
36449;SDS011;22475;51.390;7.180;2023-08-31T11:18:49;5.63;;;0.80;;
36449;SDS011;22475;51.390;7.180;2023-08-31T11:21:17;2.25;;;0.90;;
36449;SDS011;22475;51.390;7.180;2023-08-31T11:23:44;4.70;;;0.85;;
36449;SDS011;22475;51.390;7.180;2023-08-31T11:26:13;3.50;;;1.45;;
36449;SDS011;22475;51.390;7.180;2023-08-31T11:28:42;4.18;;;1.00;;
36449;SDS011;22475;51.390;7.180;2023-08-31T11:33:38;4.75;;;1.00;;
36449;SDS011;22475;51.390;7.180;2023-08-31T11:36:07;5.80;;;1.10;;
36449;SDS011;22475;51.390;7.180;2023-08-31T11:38:35;7.05;;;1.30;;
36449;SDS011;22475;51.390;7.180;2023-08-31T11:41:02;2.45;;;1.35;;
36449;SDS011;22475;51.390;7.180;2023-08-31T11:43:28;1.08;;;0.98;;
36449;SDS011;22475;51.390;7.180;2023-08-31T11:45:55;1.30;;;1.10;;
36449;SDS011;22475;51.390;7.180;2023-08-31T11:48:24;1.77;;;1.13;;
36449;SDS011;22475;51.390;7.180;2023-08-31T11:50:51;1.73;;;0.80;;
36449;SDS011;22475;51.390;7.180;2023-08-31T11:53:18;1.73;;;1.00;;
36449;SDS011;22475;51.390;7.180;2023-08-31T11:55:50;4.90;;;1.77;;
36449;SDS011;22475;51.390;7.180;2023-08-31T11:58:18;2.90;;;1.08;;
36449;SDS011;22475;51.390;7.180;2023-08-31T12:00:45;3.67;;;0.90;;
36449;SDS011;22475;51.390;7.180;2023-08-31T12:03:20;2.67;;;0.90;;
36449;SDS011;22475;51.390;7.180;2023-08-31T12:05:47;1.73;;;0.95;;
36449;SDS011;22475;51.390;7.180;2023-08-31T12:08:17;3.83;;;0.93;;
36449;SDS011;22475;51.390;7.180;2023-08-31T12:10:52;5.75;;;1.27;;
36449;SDS011;22475;51.390;7.180;2023-08-31T12:13:19;1.27;;;0.68;;
36449;SDS011;22475;51.390;7.180;2023-08-31T12:15:47;2.03;;;0.95;;
36449;SDS011;22475;51.390;7.180;2023-08-31T12:18:18;1.65;;;0.68;;
36449;SDS011;22475;51.390;7.180;2023-08-31T12:20:45;4.72;;;1.00;;
36449;SDS011;22475;51.390;7.180;2023-08-31T12:23:12;0.85;;;0.85;;
36449;SDS011;22475;51.390;7.180;2023-08-31T12:25:44;1.85;;;0.85;;
36449;SDS011;22475;51.390;7.180;2023-08-31T12:28:14;1.67;;;0.77;;
36449;SDS011;22475;51.390;7.180;2023-08-31T12:30:41;1.63;;;0.77;;
36449;SDS011;22475;51.390;7.180;2023-08-31T12:33:11;5.00;;;1.05;;
36449;SDS011;22475;51.390;7.180;2023-08-31T12:35:38;3.33;;;1.05;;
36449;SDS011;22475;51.390;7.180;2023-08-31T12:38:06;5.70;;;1.08;;
36449;SDS011;22475;51.390;7.180;2023-08-31T12:40:32;1.95;;;0.70;;
36449;SDS011;22475;51.390;7.180;2023-08-31T12:42:59;3.88;;;1.17;;
36449;SDS011;22475;51.390;7.180;2023-08-31T12:45:27;1.35;;;1.15;;
36449;SDS011;22475;51.390;7.180;2023-08-31T12:47:54;3.95;;;1.00;;
36449;SDS011;22475;51.390;7.180;2023-08-31T12:50:20;2.83;;;0.57;;
36449;SDS011;22475;51.390;7.180;2023-08-31T12:52:47;2.53;;;0.93;;
36449;SDS011;22475;51.390;7.180;2023-08-31T12:55:14;3.22;;;0.88;;
36449;SDS011;22475;51.390;7.180;2023-08-31T12:57:41;1.73;;;0.80;;
36449;SDS011;22475;51.390;7.180;2023-08-31T13:00:08;3.03;;;0.60;;
36449;SDS011;22475;51.390;7.180;2023-08-31T13:02:39;1.48;;;0.93;;
36449;SDS011;22475;51.390;7.180;2023-08-31T13:05:06;0.55;;;0.55;;
36449;SDS011;22475;51.390;7.180;2023-08-31T13:07:33;1.65;;;0.90;;
36449;SDS011;22475;51.390;7.180;2023-08-31T13:10:00;0.88;;;0.73;;
36449;SDS011;22475;51.390;7.180;2023-08-31T13:12:29;1.17;;;0.63;;
36449;SDS011;22475;51.390;7.180;2023-08-31T13:14:55;3.42;;;0.77;;
36449;SDS011;22475;51.390;7.180;2023-08-31T13:17:22;1.38;;;0.98;;
36449;SDS011;22475;51.390;7.180;2023-08-31T13:19:52;7.13;;;0.98;;
36449;SDS011;22475;51.390;7.180;2023-08-31T13:22:19;4.32;;;1.00;;
36449;SDS011;22475;51.390;7.180;2023-08-31T13:24:47;4.20;;;1.38;;
36449;SDS011;22475;51.390;7.180;2023-08-31T13:27:13;1.55;;;0.82;;
36449;SDS011;22475;51.390;7.180;2023-08-31T13:29:40;3.75;;;0.90;;
36449;SDS011;22475;51.390;7.180;2023-08-31T13:32:07;1.77;;;0.70;;
36449;SDS011;22475;51.390;7.180;2023-08-31T13:34:34;4.68;;;0.85;;
36449;SDS011;22475;51.390;7.180;2023-08-31T13:37:03;2.83;;;1.33;;
36449;SDS011;22475;51.390;7.180;2023-08-31T13:39:30;7.28;;;1.65;;
36449;SDS011;22475;51.390;7.180;2023-08-31T13:41:57;1.73;;;1.27;;
36449;SDS011;22475;51.390;7.180;2023-08-31T13:44:24;1.42;;;0.68;;
36449;SDS011;22475;51.390;7.180;2023-08-31T13:46:50;2.53;;;1.27;;
36449;SDS011;22475;51.390;7.180;2023-08-31T13:49:17;4.13;;;0.90;;
36449;SDS011;22475;51.390;7.180;2023-08-31T13:51:44;1.85;;;0.93;;
36449;SDS011;22475;51.390;7.180;2023-08-31T13:54:12;1.10;;;0.90;;
36449;SDS011;22475;51.390;7.180;2023-08-31T13:56:39;4.40;;;1.50;;
36449;SDS011;22475;51.390;7.180;2023-08-31T13:59:05;1.70;;;0.88;;
36449;SDS011;22475;51.390;7.180;2023-08-31T14:01:32;3.22;;;0.77;;
36449;SDS011;22475;51.390;7.180;2023-08-31T14:03:59;4.10;;;0.88;;
36449;SDS011;22475;51.390;7.180;2023-08-31T14:06:28;4.70;;;0.80;;
36449;SDS011;22475;51.390;7.180;2023-08-31T14:08:55;1.27;;;0.95;;
36449;SDS011;22475;51.390;7.180;2023-08-31T14:11:23;3.10;;;0.80;;
36449;SDS011;22475;51.390;7.180;2023-08-31T14:13:50;1.30;;;0.95;;
36449;SDS011;22475;51.390;7.180;2023-08-31T14:16:17;5.07;;;1.40;;
36449;SDS011;22475;51.390;7.180;2023-08-31T14:18:44;3.22;;;1.35;;
36449;SDS011;22475;51.390;7.180;2023-08-31T14:21:14;1.98;;;1.15;;
36449;SDS011;22475;51.390;7.180;2023-08-31T14:23:41;0.98;;;0.73;;
36449;SDS011;22475;51.390;7.180;2023-08-31T14:26:10;1.55;;;1.13;;
36449;SDS011;22475;51.390;7.180;2023-08-31T14:28:39;3.33;;;0.93;;
36449;SDS011;22475;51.390;7.180;2023-08-31T14:31:07;3.38;;;1.05;;
36449;SDS011;22475;51.390;7.180;2023-08-31T14:33:34;2.58;;;1.02;;
36449;SDS011;22475;51.390;7.180;2023-08-31T14:36:02;4.05;;;0.98;;
36449;SDS011;22475;51.390;7.180;2023-08-31T14:38:29;2.72;;;0.95;;
36449;SDS011;22475;51.390;7.180;2023-08-31T14:40:55;5.63;;;0.98;;
36449;SDS011;22475;51.390;7.180;2023-08-31T14:43:22;2.35;;;0.90;;
36449;SDS011;22475;51.390;7.180;2023-08-31T14:45:50;3.83;;;1.15;;
36449;SDS011;22475;51.390;7.180;2023-08-31T14:48:17;1.48;;;0.95;;
36449;SDS011;22475;51.390;7.180;2023-08-31T14:50:44;1.23;;;1.10;;
36449;SDS011;22475;51.390;7.180;2023-08-31T14:53:10;4.93;;;0.93;;
36449;SDS011;22475;51.390;7.180;2023-08-31T14:55:37;2.20;;;1.10;;
36449;SDS011;22475;51.390;7.180;2023-08-31T14:58:04;5.85;;;1.83;;
36449;SDS011;22475;51.390;7.180;2023-08-31T15:00:31;2.30;;;1.23;;
36449;SDS011;22475;51.390;7.180;2023-08-31T15:02:59;2.28;;;1.60;;